Time;durP1;ratioP1;P1;durP2;ratioP2;P2;SDS_P1;SDS_P2;PMS_P1;PMS_P2;Temp;Humidity;BMP_temperature;BMP_pressure;BME280_temperature;BME280_humidity;BME280_pressure;Samples;Min_cycle;Max_cycle;Signal;HPM_P1;HPM_P2
2022/05/26 00:02:17;;;;;;;2.35;1.80;;;;;;;13.85;99.77;101679.97;4949906;29;20035;-67
2022/05/26 00:04:42;;;;;;;3.78;1.90;;;;;;;13.82;100.00;101682.50;4949835;29;20046;-66
2022/05/26 00:07:08;;;;;;;4.05;2.30;;;;;;;13.83;100.00;101683.41;4950026;29;20138;-67
2022/05/26 00:09:33;;;;;;;4.20;1.92;;;;;;;13.84;100.00;101678.22;4949351;29;20550;-67
2022/05/26 00:11:59;;;;;;;3.75;2.10;;;;;;;13.83;100.00;101680.78;4949804;29;20387;-67
2022/05/26 00:14:24;;;;;;;4.53;2.22;;;;;;;13.83;100.00;101679.09;4949624;29;20038;-67
2022/05/26 00:16:49;;;;;;;5.28;2.17;;;;;;;13.85;100.00;101682.59;4949394;29;20652;-67
2022/05/26 00:19:17;;;;;;;2.83;2.05;;;;;;;13.86;100.00;101681.78;4949572;29;20030;-67
2022/05/26 00:21:43;;;;;;;3.65;1.95;;;;;;;13.87;100.00;101686.13;4949485;29;20062;-67
2022/05/26 00:24:09;;;;;;;7.13;2.28;;;;;;;13.87;100.00;101682.66;4949542;29;20143;-68
2022/05/26 00:26:35;;;;;;;4.20;2.65;;;;;;;13.88;100.00;101687.91;4949637;29;20550;-67
2022/05/26 00:29:00;;;;;;;3.67;2.33;;;;;;;13.88;100.00;101695.75;4949385;29;20069;-67
2022/05/26 00:31:26;;;;;;;5.05;2.70;;;;;;;13.88;100.00;101695.75;4949446;29;20110;-66
2022/05/26 00:33:51;;;;;;;3.80;2.30;;;;;;;13.90;100.00;101693.19;4948469;28;20027;-66
2022/05/26 00:36:37;;;;;;;5.28;2.42;;;;;;;13.93;100.00;101699.38;4949037;29;20333;-67
2022/05/26 00:39:06;;;;;;;4.50;2.50;;;;;;;13.93;100.00;101701.97;4949749;29;20023;-67
2022/05/26 00:41:32;;;;;;;4.72;2.88;;;;;;;13.92;100.00;101700.19;4949227;29;20023;-67
2022/05/26 00:43:57;;;;;;;6.47;2.70;;;;;;;13.95;100.00;101703.72;4949410;29;20483;-67
2022/05/26 00:46:33;;;;;;;4.13;2.35;;;;;;;13.96;100.00;101705.53;4949302;29;20066;-66
2022/05/26 00:49:01;;;;;;;3.85;2.28;;;;;;;13.96;100.00;101698.56;4949462;29;20034;-68
2022/05/26 00:51:35;;;;;;;6.35;2.97;;;;;;;13.98;100.00;101701.22;4949540;29;20031;-67
2022/05/26 00:54:15;;;;;;;4.65;2.70;;;;;;;13.97;100.00;101704.66;4948821;29;20034;-67
2022/05/26 00:56:45;;;;;;;6.07;2.78;;;;;;;13.97;100.00;101702.06;4949619;29;20447;-67
2022/05/26 00:59:40;;;;;;;7.32;3.45;;;;;;;13.98;100.00;101706.44;4949013;29;20031;-66
2022/05/26 01:02:07;;;;;;;7.63;3.15;;;;;;;13.99;100.00;101703.00;4949325;29;20539;-67
2022/05/26 01:04:40;;;;;;;4.43;2.72;;;;;;;13.93;100.00;101699.38;4949292;29;20035;-67
2022/05/26 01:07:21;;;;;;;6.47;3.17;;;;;;;13.93;100.00;101706.28;4949202;29;20391;-66
2022/05/26 01:09:46;;;;;;;7.20;2.75;;;;;;;13.93;100.00;101704.59;4948428;29;20035;-67
2022/05/26 01:12:12;;;;;;;6.30;3.10;;;;;;;13.95;100.00;101706.34;4949023;29;20085;-66
2022/05/26 01:14:46;;;;;;;6.75;3.22;;;;;;;13.94;100.00;101708.09;4949517;29;20098;-67
2022/05/26 01:17:35;;;;;;;5.90;3.63;;;;;;;13.92;100.00;101700.19;4949006;29;20496;-67
2022/05/26 01:20:13;;;;;;;5.95;3.38;;;;;;;13.91;100.00;101706.25;4948941;29;20055;-67
2022/05/26 01:23:15;;;;;;;11.07;3.60;;;;;;;13.90;100.00;101708.81;4948643;29;20079;-67
2022/05/26 01:25:59;;;;;;;5.75;3.45;;;;;;;13.90;100.00;101712.31;4948421;29;20395;-68
2022/05/26 01:28:40;;;;;;;10.38;4.10;;;;;;;13.90;100.00;101714.91;4948628;29;20067;-68
2022/05/26 01:31:49;;;;;;;8.52;3.83;;;;;;;13.87;100.00;101709.59;4948633;29;20050;-67
2022/05/26 01:34:42;;;;;;;7.65;4.05;;;;;;;13.87;100.00;101712.19;4931496;29;20033;-67
2022/05/26 01:37:26;;;;;;;7.65;3.88;;;;;;;13.86;100.00;101719.97;4948474;29;20035;-66
2022/05/26 01:40:03;;;;;;;9.07;4.07;;;;;;;13.86;100.00;101713.03;4948822;29;20412;-67
2022/05/26 01:42:43;;;;;;;8.52;3.95;;;;;;;13.84;100.00;101719.91;4948658;29;20042;-67
2022/05/26 01:45:23;;;;;;;7.15;3.90;;;;;;;13.87;100.00;101716.53;4949820;28;20027;-67
2022/05/26 01:48:14;;;;;;;8.68;3.95;;;;;;;13.88;100.00;101716.59;4951723;29;20028;-67
2022/05/26 01:50:57;;;;;;;8.80;4.57;;;;;;;13.89;100.00;101720.94;4952046;29;20526;-67
2022/05/26 01:53:29;;;;;;;8.20;4.50;;;;;;;13.88;100.00;101724.41;4952007;29;20031;-66
2022/05/26 01:56:19;;;;;;;8.35;5.25;;;;;;;13.88;100.00;101732.22;4951619;29;20027;-66
2022/05/26 01:58:53;;;;;;;12.23;5.68;;;;;;;13.89;100.00;101739.19;4941293;29;20394;-67
2022/05/26 02:01:26;;;;;;;9.48;5.43;;;;;;;13.91;100.00;101737.50;4951780;29;20089;-67
2022/05/26 02:03:53;;;;;;;11.73;6.00;;;;;;;13.93;100.00;101730.63;4951968;29;20086;-67
2022/05/26 02:06:29;;;;;;;9.45;6.07;;;;;;;13.96;100.00;101734.19;4951718;29;20035;-67
2022/05/26 02:09:09;;;;;;;10.13;6.25;;;;;;;13.96;100.00;101744.59;4951318;29;20089;-67
2022/05/26 02:11:44;;;;;;;9.52;6.05;;;;;;;13.95;100.00;101745.41;4951509;29;20038;-67
2022/05/26 02:14:14;;;;;;;11.00;6.43;;;;;;;13.95;100.00;101748.03;4951567;29;20027;-67
2022/05/26 02:16:57;;;;;;;12.57;7.20;;;;;;;13.93;100.00;101756.69;4951473;29;20450;-67
2022/05/26 02:19:32;;;;;;;11.10;7.07;;;;;;;13.93;100.00;101750.59;4951399;29;20129;-67
2022/05/26 02:22:03;;;;;;;13.68;8.07;;;;;;;13.91;100.00;101750.53;4951034;29;20495;-67
2022/05/26 02:24:37;;;;;;;14.27;7.75;;;;;;;13.92;100.00;101764.47;4951355;29;20391;-67
2022/05/26 02:27:05;;;;;;;13.35;8.40;;;;;;;13.88;100.00;101753.06;4951130;29;20059;-67
2022/05/26 02:32:16;;;;;;;12.25;8.50;;;;;;;13.86;100.00;101759.03;4951462;29;20510;-67
2022/05/26 02:34:44;;;;;;;17.58;9.30;;;;;;;13.88;100.00;101768.69;4950770;29;20061;-67
2022/05/26 02:37:12;;;;;;;13.93;8.55;;;;;;;13.91;100.00;101767.88;4951282;29;20050;-67
2022/05/26 02:39:37;;;;;;;13.45;8.45;;;;;;;13.90;100.00;101764.41;4951278;29;20030;-67
2022/05/26 02:42:03;;;;;;;12.20;8.38;;;;;;;13.88;100.00;101760.88;4951202;29;20505;-67
2022/05/26 02:44:31;;;;;;;14.27;8.23;;;;;;;13.88;100.00;101763.47;4951494;29;20023;-67
2022/05/26 02:47:06;;;;;;;11.80;7.88;;;;;;;13.88;100.00;101758.25;4950854;29;20028;-66
2022/05/26 02:49:57;;;;;;;14.63;8.70;;;;;;;13.90;100.00;101769.63;4951208;29;20027;-67
2022/05/26 02:52:40;;;;;;;13.52;9.18;;;;;;;13.89;100.00;101770.44;4951493;29;20027;-67
2022/05/26 02:55:15;;;;;;;16.30;8.48;;;;;;;13.89;100.00;101774.75;4951099;29;20054;-67
2022/05/26 02:58:22;;;;;;;17.48;8.52;;;;;;;13.90;100.00;101774.84;4949640;28;20039;-67
2022/05/26 03:01:11;;;;;;;13.85;8.35;;;;;;;13.90;100.00;101769.63;4948095;29;20470;-67
2022/05/26 03:03:43;;;;;;;13.77;8.50;;;;;;;13.89;100.00;101770.44;4950742;29;20042;-67
2022/05/26 03:06:16;;;;;;;15.73;8.63;;;;;;;13.87;100.00;101772.09;4950742;29;20042;-67
2022/05/26 03:08:43;;;;;;;13.82;8.90;;;;;;;13.85;100.00;101778.13;4950274;29;20035;-67
2022/05/26 03:11:17;;;;;;;14.68;8.55;;;;;;;13.86;100.00;101778.16;4950753;29;20039;-67
2022/05/26 03:13:43;;;;;;;15.15;9.07;;;;;;;13.84;100.00;101779.81;4950634;29;20034;-68
2022/05/26 03:16:08;;;;;;;16.27;9.35;;;;;;;13.80;100.00;101777.94;4950117;29;20027;-67
2022/05/26 03:18:34;;;;;;;17.98;9.52;;;;;;;13.80;100.00;101775.34;4950562;29;20476;-67
2022/05/26 03:21:01;;;;;;;16.13;9.48;;;;;;;13.78;100.00;101782.25;4950000;29;20065;-68
2022/05/26 03:23:27;;;;;;;16.75;9.52;;;;;;;13.76;100.00;101776.09;4949154;29;20037;-67
2022/05/26 03:25:58;;;;;;;17.02;9.35;;;;;;;13.77;100.00;101781.34;4948615;29;20039;-67
2022/05/26 03:28:24;;;;;;;19.58;10.02;;;;;;;13.72;100.00;101782.03;4949122;29;20031;-67
2022/05/26 03:30:49;;;;;;;17.42;11.13;;;;;;;13.68;100.00;101787.13;4949191;29;20395;-68
2022/05/26 03:33:14;;;;;;;16.13;9.73;;;;;;;13.67;100.00;101785.34;4948181;29;20030;-67
2022/05/26 03:41:18;;;;;;;19.60;9.73;;;;;;;13.71;100.00;101801.09;4938023;29;20042;-67
2022/05/26 03:43:46;;;;;;;;;;;;;;;13.69;100.00;101804.53;4932550;29;20027;-67
2022/05/26 03:46:12;;;;;;;17.17;9.70;;;;;;;13.69;100.00;101798.41;4949958;29;20408;-68
2022/05/26 03:48:38;;;;;;;17.58;9.55;;;;;;;13.71;100.00;101806.31;4950065;29;20037;-67
2022/05/26 03:51:04;;;;;;;20.23;9.75;;;;;;;13.71;100.00;101806.31;4950203;29;20031;-67
2022/05/26 03:53:30;;;;;;;22.80;10.10;;;;;;;13.71;100.00;101804.56;4950061;29;20079;-67
2022/05/26 03:55:55;;;;;;;17.27;9.02;;;;;;;13.71;100.00;101809.78;4949928;29;20404;-67
2022/05/26 03:58:20;;;;;;;20.60;9.68;;;;;;;13.74;100.00;101806.41;4949864;29;20082;-67
2022/05/26 04:00:45;;;;;;;16.13;8.60;;;;;;;13.71;100.00;101809.78;4949971;29;20090;-67
2022/05/26 04:03:11;;;;;;;16.20;8.02;;;;;;;13.71;100.00;101819.34;4950344;29;20046;-66
2022/05/26 04:05:36;;;;;;;15.50;8.50;;;;;;;13.69;100.00;101814.94;4950264;29;20035;-68
2022/05/26 04:08:02;;;;;;;15.57;8.73;;;;;;;13.67;100.00;101826.16;4949997;28;20029;-67
2022/05/26 04:10:28;;;;;;;19.10;8.90;;;;;;;13.62;100.00;101828.56;4949420;29;20118;-67
2022/05/26 04:12:55;;;;;;;18.92;8.13;;;;;;;13.61;100.00;101820.72;4950129;29;20101;-67
2022/05/26 04:15:21;;;;;;;18.15;8.15;;;;;;;13.59;100.00;101827.56;4950127;29;20027;-67
2022/05/26 04:17:46;;;;;;;17.58;8.23;;;;;;;13.58;100.00;101826.72;4949462;29;20038;-68
2022/05/26 04:20:15;;;;;;;20.05;8.18;;;;;;;13.59;100.00;101828.47;4949490;29;20058;-67
2022/05/26 04:22:40;;;;;;;17.45;7.47;;;;;;;13.60;100.00;101827.63;4949315;29;20027;-67
2022/05/26 04:25:06;;;;;;;15.90;8.00;;;;;;;13.62;100.00;101828.56;4949451;29;20023;-67
2022/05/26 04:27:34;;;;;;;19.92;7.68;;;;;;;13.63;100.00;101840.78;4949597;29;20027;-67
2022/05/26 04:30:01;;;;;;;16.25;7.93;;;;;;;13.64;100.00;101837.34;4949458;29;20059;-66
2022/05/26 04:32:27;;;;;;;19.15;7.93;;;;;;;13.67;100.00;101841.78;4949452;29;20035;-67
2022/05/26 04:34:53;;;;;;;20.42;7.75;;;;;;;13.65;100.00;101833.88;4949418;29;20031;-67
2022/05/26 04:37:20;;;;;;;18.10;6.80;;;;;;;13.66;100.00;101846.09;4949618;29;20067;-67
2022/05/26 04:39:46;;;;;;;21.80;7.47;;;;;;;13.67;100.00;101845.25;4949483;29;20031;-67
2022/05/26 04:42:12;;;;;;;20.48;7.43;;;;;;;13.64;100.00;101837.34;4949672;29;20043;-66
2022/05/26 04:44:41;;;;;;;20.95;7.68;;;;;;;13.64;100.00;101847.75;4949660;29;20432;-67
2022/05/26 04:47:07;;;;;;;15.13;6.78;;;;;;;13.64;100.00;101847.75;4949865;29;20423;-67
2022/05/26 04:49:32;;;;;;;20.60;8.30;;;;;;;13.64;100.00;101847.75;4949388;29;20090;-67
2022/05/26 04:51:58;;;;;;;18.35;7.13;;;;;;;13.65;100.00;101853.84;4949693;29;20031;-67
2022/05/26 04:54:25;;;;;;;17.05;7.80;;;;;;;13.68;100.00;101860.06;4949345;29;20035;-67
2022/05/26 04:56:54;;;;;;;17.58;6.68;;;;;;;13.67;100.00;101858.25;4948945;29;20058;-67
2022/05/26 04:59:19;;;;;;;15.57;6.93;;;;;;;13.68;100.00;101866.97;4949430;29;20208;-67
2022/05/26 05:01:44;;;;;;;16.17;8.18;;;;;;;13.68;100.00;101862.66;4948976;29;20121;-67
2022/05/26 05:04:10;;;;;;;17.23;7.90;;;;;;;13.68;100.00;101867.88;4949421;29;20388;-67
2022/05/26 05:06:35;;;;;;;18.25;7.03;;;;;;;13.73;100.00;101877.53;4949363;29;20031;-67
2022/05/26 05:09:00;;;;;;;17.67;6.07;;;;;;;13.78;100.00;101871.66;4949431;29;20042;-67
2022/05/26 05:11:26;;;;;;;17.05;6.85;;;;;;;13.80;100.00;101882.13;4948638;29;20097;-67
2022/05/26 05:13:52;;;;;;;21.45;7.38;;;;;;;13.83;100.00;101887.47;4949007;29;20379;-67
2022/05/26 05:16:22;;;;;;;16.35;7.07;;;;;;;13.85;100.00;101891.00;4948898;29;20032;-66
2022/05/26 05:18:50;;;;;;;22.85;7.28;;;;;;;13.86;100.00;101882.38;4948947;28;20292;-67
2022/05/26 05:21:18;;;;;;;18.48;7.68;;;;;;;13.89;100.00;101895.50;4952158;29;20494;-67
2022/05/26 05:23:49;;;;;;;17.13;6.75;;;;;;;13.91;100.00;101891.22;4952286;29;20039;-67
2022/05/26 05:26:19;;;;;;;19.75;7.22;;;;;;;13.92;100.00;101892.13;4952637;29;20027;-68
2022/05/26 05:28:53;;;;;;;18.77;7.07;;;;;;;13.96;100.00;101899.19;4951538;29;20461;-67
2022/05/26 05:31:29;;;;;;;16.38;6.32;;;;;;;14.00;100.00;101902.78;4952649;29;20035;-66
2022/05/26 05:34:06;;;;;;;16.85;7.28;;;;;;;14.04;100.00;101909.91;4952461;29;20081;-67
2022/05/26 05:36:34;;;;;;;13.80;6.65;;;;;;;14.05;100.00;101906.44;4952655;29;20031;-66
2022/05/26 05:39:00;;;;;;;22.33;8.10;;;;;;;14.05;100.00;101914.25;4952629;29;20031;-66
2022/05/26 05:41:27;;;;;;;19.13;8.00;;;;;;;14.09;100.00;101910.94;4953010;29;20051;-67
2022/05/26 05:43:54;;;;;;;22.10;7.40;;;;;;;14.10;100.00;101910.13;4952618;29;20043;-67
2022/05/26 05:46:20;;;;;;;20.70;7.40;;;;;;;14.13;100.00;101917.16;4951926;29;20129;-67
2022/05/26 05:48:46;;;;;;;19.20;7.20;;;;;;;14.19;100.00;101909.56;4952254;29;20523;-68
2022/05/26 05:51:13;;;;;;;14.70;6.78;;;;;;;14.20;100.00;101918.25;4952219;29;20031;-67
2022/05/26 05:53:38;;;;;;;18.73;7.38;;;;;;;14.26;100.00;101916.75;4952558;29;20059;-67
2022/05/26 05:56:04;;;;;;;19.65;7.00;;;;;;;14.28;100.00;101924.63;4952472;29;20117;-67
2022/05/26 05:58:29;;;;;;;19.98;7.43;;;;;;;14.34;100.00;101926.53;4952442;29;20654;-67
2022/05/26 06:00:54;;;;;;;17.77;7.13;;;;;;;14.36;100.00;101925.75;4951908;29;20036;-66
2022/05/26 06:03:21;;;;;;;22.10;7.72;;;;;;;14.40;100.00;101932.84;4952415;29;20033;-67
2022/05/26 06:05:46;;;;;;;17.40;7.57;;;;;;;14.42;100.00;101935.50;4952284;29;20038;-67
2022/05/26 06:08:12;;;;;;;22.02;7.82;;;;;;;14.40;100.00;101938.06;4952363;29;20027;-67
2022/05/26 06:10:37;;;;;;;21.48;7.43;;;;;;;14.46;100.00;101939.09;4951986;29;20063;-67
2022/05/26 06:13:02;;;;;;;15.80;7.50;;;;;;;14.51;100.00;101940.13;4951965;29;20042;-66
2022/05/26 06:15:28;;;;;;;22.08;8.68;;;;;;;14.58;100.00;101949.94;4951393;29;20359;-66
2022/05/26 06:17:53;;;;;;;15.80;6.97;;;;;;;14.65;100.00;101946.69;4951827;29;20043;-67
2022/05/26 06:20:19;;;;;;;19.35;7.25;;;;;;;14.69;100.00;101946.78;4951550;29;20423;-66
2022/05/26 06:22:46;;;;;;;16.13;7.72;;;;;;;14.71;99.91;101945.13;4952137;29;20133;-67
2022/05/26 06:25:15;;;;;;;18.35;7.22;;;;;;;14.76;100.00;101956.59;4950984;29;20046;-67
2022/05/26 06:30:30;;;;;;;17.17;7.95;;;;;;;14.79;99.95;101956.69;4952217;28;20050;-67
2022/05/26 06:38:31;;;;;;;19.73;8.90;;;;;;;15.02;99.16;101968.75;4952053;29;20121;-66
2022/05/26 06:42:05;;;;;;;17.73;9.38;;;;;;;15.12;98.50;101969.09;4951071;29;20051;-67
2022/05/26 06:43:42;;;;;;;16.55;8.30;;;;;;;15.24;97.42;101968.56;4951108;28;20039;-67
2022/05/26 06:46:07;;;;;;;17.02;8.85;;;;;;;15.37;96.66;101971.53;4951246;29;20030;-67
2022/05/26 06:48:32;;;;;;;17.50;10.15;;;;;;;15.57;95.78;101968.63;4951063;29;20061;-67
2022/05/26 06:50:57;;;;;;;20.02;9.43;;;;;;;15.71;94.61;101971.66;4951185;29;20362;-67
2022/05/26 06:53:23;;;;;;;18.40;8.98;;;;;;;15.81;93.54;101976.28;4950744;29;20038;-66
2022/05/26 06:55:48;;;;;;;18.13;9.07;;;;;;;15.90;93.17;101972.19;4950926;29;20534;-67
2022/05/26 06:58:13;;;;;;;17.48;9.70;;;;;;;16.01;92.64;101977.75;4951174;29;20039;-67
2022/05/26 07:00:38;;;;;;;16.17;9.35;;;;;;;15.96;92.00;101965.38;4965943;28;20082;-67
2022/05/26 07:03:04;;;;;;;14.80;8.50;;;;;;;16.01;90.83;101983.84;4951084;29;20460;-67
2022/05/26 07:05:29;;;;;;;16.58;9.18;;;;;;;16.11;89.17;101986.72;4950472;29;20054;-67
2022/05/26 07:07:54;;;;;;;16.50;8.50;;;;;;;16.00;87.98;101981.19;4950947;29;20051;-67
2022/05/26 07:10:19;;;;;;;19.85;9.13;;;;;;;16.10;87.27;101987.56;4951153;29;20038;-67
2022/05/26 07:12:46;;;;;;;17.42;8.13;;;;;;;16.23;87.64;101996.59;4950652;29;20030;-67
2022/05/26 07:15:12;;;;;;;16.27;9.75;;;;;;;16.30;88.01;101996.81;4950420;29;20051;-66
2022/05/26 07:17:38;;;;;;;17.05;10.23;;;;;;;16.33;87.13;101996.03;4950604;29;20098;-67
2022/05/26 07:20:04;;;;;;;14.68;9.15;;;;;;;16.37;87.15;102000.47;4950519;29;20048;-67
2022/05/26 07:22:30;;;;;;;21.15;9.30;;;;;;;16.32;88.65;102005.59;4950160;29;20108;-66
2022/05/26 07:24:56;;;;;;;15.35;8.98;;;;;;;16.39;88.12;102005.75;4950373;29;20543;-67
2022/05/26 07:27:22;;;;;;;16.67;9.27;;;;;;;16.30;87.02;102007.28;4950298;29;20118;-66
2022/05/26 07:29:47;;;;;;;16.95;8.68;;;;;;;16.49;85.99;102013.00;4950664;29;20337;-67
2022/05/26 07:32:12;;;;;;;12.43;6.55;;;;;;;16.72;85.67;102010.09;4950219;29;20035;-67
2022/05/26 07:34:37;;;;;;;10.73;6.43;;;;;;;16.90;83.82;102012.28;4950707;29;20019;-67
2022/05/26 07:42:34;;;;;;;11.73;7.63;;;;;;;16.68;82.66;102018.69;4950056;28;20079;-66
2022/05/26 07:45:02;;;;;;;13.27;7.95;;;;;;;16.63;84.36;102026.44;4950620;29;20035;-66
2022/05/26 07:47:27;;;;;;;12.82;7.55;;;;;;;16.64;83.10;102027.34;4949875;29;20035;-67
2022/05/26 07:49:54;;;;;;;14.43;8.05;;;;;;;16.55;82.31;102034.09;4949970;29;20038;-67
2022/05/26 07:52:19;;;;;;;11.02;7.25;;;;;;;16.51;83.87;102032.25;4950209;29;20031;-67
2022/05/26 07:54:45;;;;;;;12.48;7.80;;;;;;;16.44;83.37;102027.69;4950219;29;20035;-67
2022/05/26 07:57:19;;;;;;;11.80;7.70;;;;;;;16.43;84.42;102025.91;4950437;29;20110;-67
2022/05/26 07:59:44;;;;;;;13.30;7.22;;;;;;;16.61;84.00;102029.84;4949408;29;20088;-67
2022/05/26 08:02:09;;;;;;;11.70;6.82;;;;;;;16.87;83.29;102029.63;4950092;29;20050;-66
2022/05/26 08:04:35;;;;;;;13.63;7.28;;;;;;;17.07;81.47;102032.72;4949670;29;20030;-66
2022/05/26 08:07:00;;;;;;;11.85;6.88;;;;;;;17.12;81.38;102040.75;4949783;29;20035;-67
2022/05/26 08:09:25;;;;;;;11.38;7.40;;;;;;;17.01;80.79;102029.97;4964315;28;20019;-67
2022/05/26 08:11:51;;;;;;;11.50;8.18;;;;;;;17.00;79.92;102046.53;4950379;29;20039;-66
2022/05/26 08:14:16;;;;;;;14.50;7.80;;;;;;;17.22;80.26;102037.47;4949039;29;20015;-67
2022/05/26 08:16:42;;;;;;;11.80;7.40;;;;;;;17.73;81.97;102044.72;4949527;29;20463;-67
2022/05/26 08:19:08;;;;;;;10.13;6.40;;;;;;;17.94;76.82;102048.63;4932167;29;20031;-67
2022/05/26 08:21:35;;;;;;;13.30;6.32;;;;;;;17.96;75.86;102044.28;4949920;29;20023;-67
2022/05/26 08:24:02;;;;;;;10.07;5.35;;;;;;;18.31;74.29;102033.63;4949340;29;20112;-67
2022/05/26 08:26:28;;;;;;;10.85;5.65;;;;;;;18.67;72.36;102044.75;4949152;29;20031;-67
2022/05/26 08:28:55;;;;;;;8.88;5.78;;;;;;;18.68;71.84;102038.66;4949396;29;20023;-67
2022/05/26 08:31:20;;;;;;;12.55;6.03;;;;;;;18.59;71.54;102049.00;4949459;29;20031;-67
2022/05/26 08:33:45;;;;;;;13.93;6.15;;;;;;;18.46;71.60;102042.63;4949739;29;20031;-67
2022/05/26 08:36:14;;;;;;;12.82;6.53;;;;;;;18.53;72.58;102046.28;4949109;29;20467;-67
2022/05/26 08:38:39;;;;;;;8.95;4.78;;;;;;;18.89;70.70;102037.25;4949446;29;20055;-67
2022/05/26 08:41:06;;;;;;;9.45;5.38;;;;;;;19.19;67.92;102046.50;4949094;29;20385;-67
2022/05/26 08:43:41;;;;;;;7.55;4.15;;;;;;;19.31;66.85;102047.53;4949739;29;20043;-67
2022/05/26 08:46:12;;;;;;;10.80;5.95;;;;;;;19.17;68.11;102049.97;4949510;29;20066;-68
2022/05/26 08:49:11;;;;;;;11.02;5.30;;;;;;;18.67;69.56;102063.13;4949207;29;20035;-67
2022/05/26 08:51:50;;;;;;;8.88;4.88;;;;;;;18.59;69.70;102054.25;4949116;29;20443;-66
2022/05/26 08:54:23;;;;;;;6.82;4.55;;;;;;;18.74;67.68;102064.16;4949287;28;20027;-67
2022/05/26 08:56:50;;;;;;;9.05;4.35;;;;;;;19.01;67.60;102061.94;4953068;29;20506;-67
2022/05/26 08:59:18;;;;;;;6.32;4.40;;;;;;;18.99;67.08;102064.56;4952982;29;20442;-67
2022/05/26 09:01:44;;;;;;;8.35;5.32;;;;;;;19.12;67.82;102065.69;4952781;29;20726;-67
2022/05/26 09:04:10;;;;;;;10.63;6.45;;;;;;;18.97;65.88;102050.50;4952759;29;20031;-67
2022/05/26 09:15:04;;;;;;;10.85;9.82;;;;;;;18.05;71.77;102075.06;4953044;29;20119;-67
2022/05/26 09:17:30;;;;;;;10.43;8.07;;;;;;;18.23;71.81;102070.22;4952359;29;20027;-67
2022/05/26 09:19:57;;;;;;;12.38;8.13;;;;;;;18.38;69.80;102066.13;4952663;29;20062;-68
2022/05/26 09:22:46;;;;;;;10.90;7.95;;;;;;;18.41;69.54;102070.53;4952734;29;20051;-67
2022/05/26 09:25:29;;;;;;;15.18;13.80;;;;;;;18.44;71.06;102071.47;4953126;29;20102;-66
2022/05/26 09:27:54;;;;;;;18.13;15.73;;;;;;;18.55;70.13;102068.16;4952231;29;20035;-67
2022/05/26 09:30:26;;;;;;;15.52;13.95;;;;;;;18.48;69.86;102080.28;4935510;29;20086;-67
2022/05/26 09:32:52;;;;;;;16.48;14.98;;;;;;;18.48;70.58;102089.06;4952517;29;20410;-66
2022/05/26 09:35:23;;;;;;;15.32;13.65;;;;;;;18.48;71.47;102093.41;4952278;29;20082;-67
2022/05/26 09:38:03;;;;;;;13.30;10.63;;;;;;;18.47;68.95;102097.78;4951914;29;20061;-67
2022/05/26 09:40:34;;;;;;;9.50;6.97;;;;;;;18.58;67.56;102099.75;4952512;29;20062;-67
2022/05/26 09:43:14;;;;;;;10.45;9.10;;;;;;;18.68;66.47;102093.78;4952202;29;20041;-67
2022/05/26 09:45:45;;;;;;;10.17;8.53;;;;;;;18.99;68.18;102095.19;4952537;29;20043;-67
2022/05/26 09:48:16;;;;;;;;;;;;;;;19.20;67.14;102100.81;4951835;29;20775;-67
2022/05/26 09:50:47;;;;;;;10.07;9.15;;;;;;;19.46;68.98;102101.19;4952533;29;19942;-67
2022/05/26 09:53:13;;;;;;;;;;;;;;;19.59;68.03;102108.38;4952697;29;20045;-67
2022/05/26 09:55:50;;;;;;;12.43;11.18;;;;;;;19.71;65.82;102101.53;4952366;29;19914;-68
2022/05/26 09:58:37;;;;;;;12.07;9.77;;;;;;;19.86;63.99;102101.75;4952289;29;20090;-67
2022/05/26 10:01:34;;;;;;;10.82;8.13;;;;;;;19.95;63.76;102100.97;4952343;29;20093;-67
2022/05/26 10:04:25;;;;;;;10.40;7.88;;;;;;;19.97;61.88;102106.28;4952032;29;20079;-66
2022/05/26 10:07:17;;;;;;;14.05;8.73;;;;;;;19.53;62.50;102105.69;4951574;28;20114;-67
2022/05/26 10:10:01;;;;;;;10.80;9.73;;;;;;;19.27;64.22;102106.16;4952188;29;20035;-67
2022/05/26 10:13:04;;;;;;;9.82;8.90;;;;;;;19.47;65.28;102108.22;4951964;29;20042;-67
2022/05/26 10:15:39;;;;;;;11.32;9.48;;;;;;;19.68;63.39;102108.53;4952234;29;20035;-67
2022/05/26 10:18:26;;;;;;;10.02;7.55;;;;;;;19.88;61.07;102114.91;4952141;29;20031;-67
2022/05/26 10:21:04;;;;;;;7.97;6.90;;;;;;;19.90;60.34;102116.72;4951223;29;20059;-67
2022/05/26 10:23:46;;;;;;;10.50;8.95;;;;;;;19.79;60.91;102115.66;4951528;29;20632;-67
2022/05/26 10:26:23;;;;;;;9.85;8.23;;;;;;;19.77;61.51;102112.16;4951780;29;20093;-67
2022/05/26 10:29:14;;;;;;;10.57;7.75;;;;;;;19.95;61.54;102118.53;4951916;29;20023;-67
2022/05/26 10:31:39;;;;;;;;;;;;;;;20.11;61.47;102112.59;4952363;29;20476;-68
2022/05/26 10:34:07;;;;;;;8.88;7.63;;;;;;;20.33;60.77;102101.47;4951612;29;19918;-66
2022/05/26 10:37:01;;;;;;;13.13;7.40;;;;;;;20.50;61.23;102115.69;4951777;29;20510;-67
2022/05/26 10:39:50;;;;;;;10.80;8.00;;;;;;;20.51;60.74;102112.19;4951160;29;20019;-67
2022/05/26 10:42:30;;;;;;;11.15;8.65;;;;;;;20.45;59.56;102111.25;4951240;29;20031;-67
2022/05/26 10:45:19;;;;;;;9.00;8.02;;;;;;;20.59;61.25;102120.19;4951189;29;20023;-67
2022/05/26 10:48:08;;;;;;;8.30;7.60;;;;;;;20.45;58.80;102108.63;4951351;29;20031;-67
2022/05/26 10:50:59;;;;;;;10.45;8.60;;;;;;;20.48;59.72;102104.25;4951232;29;20193;-67
2022/05/26 10:53:33;;;;;;;9.20;8.40;;;;;;;20.52;59.65;102103.41;4951322;29;20511;-66
2022/05/26 10:56:18;;;;;;;9.48;8.30;;;;;;;20.67;60.21;102100.94;4951309;29;20027;-67
2022/05/26 10:58:47;;;;;;;7.85;7.05;;;;;;;20.78;58.54;102101.91;4950936;29;20110;-67
2022/05/26 11:01:34;;;;;;;10.13;8.52;;;;;;;20.86;57.39;102096.72;4950958;29;20023;-66
2022/05/26 11:04:25;;;;;;;7.30;6.60;;;;;;;20.71;56.47;102110.63;4950868;29;20035;-67
2022/05/26 11:06:54;;;;;;;7.18;6.28;;;;;;;20.56;55.39;102112.22;4947742;28;20462;-67
2022/05/26 11:09:30;;;;;;;8.85;6.65;;;;;;;20.47;56.97;102106.88;4950305;29;20038;-66
2022/05/26 11:11:59;;;;;;;7.35;6.65;;;;;;;20.28;57.43;102114.56;4950714;29;20027;-68
2022/05/26 11:17:42;;;;;;;9.77;6.57;;;;;;;19.81;60.23;102116.56;4950218;28;20042;-68
2022/05/26 11:20:13;;;;;;;9.57;6.25;;;;;;;19.80;60.77;102117.44;4950287;29;20499;-67
2022/05/26 11:22:41;;;;;;;6.68;5.82;;;;;;;19.72;61.54;102116.44;4950750;29;20114;-67
2022/05/26 11:25:07;;;;;;;7.65;5.47;;;;;;;19.71;64.10;102118.22;4951166;29;20591;-67
2022/05/26 11:27:44;;;;;;;9.55;6.43;;;;;;;19.66;62.51;102120.75;4950911;29;20027;-67
2022/05/26 11:36:07;;;;;;;9.55;6.50;;;;;;;19.40;62.27;102117.75;4950429;29;20407;-68
2022/05/26 11:38:33;;;;;;;8.50;6.85;;;;;;;19.31;62.23;102103.63;4950894;29;20495;-67
2022/05/26 11:41:01;;;;;;;9.85;6.93;;;;;;;19.30;60.61;102107.09;4950651;29;20027;-68
2022/05/26 11:43:39;;;;;;;9.20;6.40;;;;;;;19.36;61.08;102108.03;4949941;29;20039;-67
2022/05/26 11:46:08;;;;;;;7.10;6.07;;;;;;;19.35;60.83;102099.28;4950369;29;20027;-67
2022/05/26 11:48:33;;;;;;;10.00;6.93;;;;;;;19.40;61.94;102102.88;4950306;29;20082;-67
2022/05/26 11:51:00;;;;;;;8.30;6.88;;;;;;;19.32;60.78;102100.13;4950634;29;20462;-67
2022/05/26 11:53:41;;;;;;;10.48;7.70;;;;;;;19.16;61.01;102099.00;4950141;29;20183;-67
2022/05/26 11:56:28;;;;;;;10.57;7.32;;;;;;;19.02;62.70;102100.47;4949949;29;20089;-67
2022/05/26 11:59:26;;;;;;;8.85;6.90;;;;;;;18.84;62.14;102099.31;4949676;29;20039;-67
2022/05/26 12:02:00;;;;;;;6.63;6.00;;;;;;;18.91;62.28;102095.94;4950429;29;20105;-67
2022/05/26 12:04:30;;;;;;;9.77;6.97;;;;;;;19.22;61.61;102097.31;4949621;29;20054;-67
2022/05/26 12:07:05;;;;;;;9.77;7.10;;;;;;;19.49;60.69;102082.84;4949965;29;20106;-67
2022/05/26 12:09:39;;;;;;;10.10;6.60;;;;;;;19.66;59.32;102080.47;4950338;29;20042;-67
2022/05/26 12:12:17;;;;;;;8.45;7.40;;;;;;;19.62;59.72;102084.78;4949999;29;20116;-67
2022/05/26 12:14:50;;;;;;;9.25;6.88;;;;;;;19.67;59.56;102085.75;4964495;28;20019;-68
2022/05/26 12:17:40;;;;;;;10.35;7.50;;;;;;;19.47;60.86;102072.31;4949576;29;20039;-66